Time;durP1;ratioP1;P1;durP2;ratioP2;P2;SDS_P1;SDS_P2;PMS_P1;PMS_P2;Temp;Humidity;BMP_temperature;BMP_pressure;BME280_temperature;BME280_humidity;BME280_pressure;Samples;Min_cycle;Max_cycle;Signal;HPM_P1;HPM_P2
2022/06/17 00:01:04;;;;;;;6.47;3.30;;;;;;;;;;5011468;28;20036;-73
2022/06/17 00:03:32;;;;;;;4.53;3.13;;;;;;;;;;5012321;28;20101;-76
2022/06/17 00:05:59;;;;;;;4.90;3.30;;;;;;;;;;5011056;28;20033;-73
2022/06/17 00:08:29;;;;;;;5.43;3.20;;;;;;;;;;5007441;28;20103;-77
2022/06/17 00:10:56;;;;;;;7.45;3.30;;;;;;;;;;5010947;28;20066;-73
2022/06/17 00:13:24;;;;;;;6.80;3.30;;;;;;;;;;5011385;28;20080;-73
2022/06/17 00:15:50;;;;;;;5.95;3.50;;;;;;;;;;5012681;28;20688;-76
2022/06/17 00:18:17;;;;;;;9.95;3.80;;;;;;;;;;5012447;28;20033;-74
2022/06/17 00:20:43;;;;;;;5.47;2.97;;;;;;;;;;5013336;28;20030;-74
2022/06/17 00:23:13;;;;;;;6.22;3.35;;;;;;;;;;5009216;28;20521;-74
2022/06/17 00:25:40;;;;;;;6.40;3.40;;;;;;;;;;5006265;28;20042;-75
2022/06/17 00:28:10;;;;;;;9.52;3.83;;;;;;;;;;5011893;28;20553;-76
2022/06/17 00:30:36;;;;;;;7.15;3.20;;;;;;;;;;5012793;28;20030;-74
2022/06/17 00:33:02;;;;;;;9.80;3.63;;;;;;;;;;5007937;28;20025;-74
2022/06/17 00:35:30;;;;;;;10.15;4.43;;;;;;;;;;5011124;28;20045;-74
2022/06/17 00:37:58;;;;;;;9.85;4.18;;;;;;;;;;5007673;28;20102;-73
2022/06/17 00:40:26;;;;;;;11.57;4.10;;;;;;;;;;5012247;28;20036;-74
2022/06/17 00:42:52;;;;;;;13.30;4.28;;;;;;;;;;5009090;28;20021;-74
2022/06/17 00:45:24;;;;;;;7.43;4.30;;;;;;;;;;5012344;28;20025;-74
2022/06/17 00:47:54;;;;;;;9.82;4.03;;;;;;;;;;5002798;28;20034;-74
2022/06/17 00:50:20;;;;;;;10.43;4.35;;;;;;;;;;5008093;28;20033;-74
2022/06/17 00:52:50;;;;;;;14.50;4.50;;;;;;;;;;5013028;28;20038;-74
2022/06/17 00:55:22;;;;;;;9.45;4.95;;;;;;;;;;5009086;28;20054;-74
2022/06/17 00:57:48;;;;;;;12.35;4.38;;;;;;;;;;5012323;28;20108;-75
2022/06/17 01:00:16;;;;;;;14.90;4.78;;;;;;;;;;5011231;28;20479;-75
2022/06/17 01:02:46;;;;;;;11.00;4.50;;;;;;;;;;5001797;28;20035;-74
2022/06/17 01:05:12;;;;;;;11.38;4.18;;;;;;;;;;5007353;28;20475;-73
2022/06/17 01:07:41;;;;;;;11.52;4.10;;;;;;;;;;5010993;28;20041;-75
2022/06/17 01:10:12;;;;;;;10.43;3.88;;;;;;;;;;5008159;28;20030;-74
2022/06/17 01:12:50;;;;;;;10.23;4.30;;;;;;;;;;5009125;28;20045;-74
2022/06/17 01:15:17;;;;;;;12.80;3.70;;;;;;;;;;5010793;28;20040;-74
2022/06/17 01:17:44;;;;;;;12.82;4.15;;;;;;;;;;5008283;28;20030;-74
2022/06/17 01:20:12;;;;;;;10.45;4.05;;;;;;;;;;5009907;28;20038;-73
2022/06/17 01:22:39;;;;;;;10.90;4.00;;;;;;;;;;5010693;28;20162;-74
2022/06/17 01:25:11;;;;;;;13.73;4.13;;;;;;;;;;5011579;28;20156;-74
2022/06/17 01:27:44;;;;;;;14.82;3.80;;;;;;;;;;5011102;28;20026;-75
2022/06/17 01:30:12;;;;;;;10.07;3.97;;;;;;;;;;5013015;28;20084;-75
2022/06/17 01:32:44;;;;;;;7.82;3.67;;;;;;;;;;5011070;28;20110;-74
2022/06/17 01:35:10;;;;;;;12.15;4.10;;;;;;;;;;5010084;28;20045;-77
2022/06/17 01:37:36;;;;;;;18.38;3.90;;;;;;;;;;5012292;28;20022;-74
2022/06/17 01:40:03;;;;;;;9.05;3.90;;;;;;;;;;5016255;28;20076;-75
2022/06/17 01:42:30;;;;;;;9.07;4.07;;;;;;;;;;5014906;28;20437;-75
2022/06/17 01:44:56;;;;;;;7.72;3.92;;;;;;;;;;5016328;28;20017;-76
2022/06/17 01:47:24;;;;;;;11.90;4.25;;;;;;;;;;5015479;28;20033;-75
2022/06/17 01:49:53;;;;;;;9.88;4.10;;;;;;;;;;5012312;28;20033;-74
2022/06/17 01:52:39;;;;;;;13.07;4.43;;;;;;;;;;5014848;28;20022;-75
2022/06/17 01:55:17;;;;;;;13.18;4.18;;;;;;;;;;5014113;28;20042;-74
2022/06/17 01:57:47;;;;;;;9.82;4.25;;;;;;;;;;5005803;28;20034;-76
2022/06/17 02:00:21;;;;;;;7.38;3.70;;;;;;;;;;5010188;28;20028;-75
2022/06/17 02:02:50;;;;;;;10.88;4.50;;;;;;;;;;5007635;28;20397;-76
2022/06/17 02:05:17;;;;;;;7.97;4.07;;;;;;;;;;5015111;28;20038;-75
2022/06/17 02:07:43;;;;;;;9.13;3.80;;;;;;;;;;5015272;28;20034;-74
2022/06/17 02:10:10;;;;;;;8.52;4.07;;;;;;;;;;5014415;28;20026;-74
2022/06/17 02:12:36;;;;;;;9.95;4.10;;;;;;;;;;5011578;28;20526;-73
2022/06/17 02:15:02;;;;;;;11.45;4.10;;;;;;;;;;5010273;28;20145;-75
2022/06/17 02:17:31;;;;;;;7.65;3.67;;;;;;;;;;5013855;28;20502;-74
2022/06/17 02:19:57;;;;;;;9.75;4.20;;;;;;;;;;5013392;28;20022;-74
2022/06/17 02:22:25;;;;;;;14.68;4.72;;;;;;;;;;5013183;28;20030;-76
2022/06/17 02:24:52;;;;;;;12.68;3.80;;;;;;;;;;5014741;28;20040;-74
2022/06/17 02:27:19;;;;;;;6.85;3.65;;;;;;;;;;5015616;28;20143;-74
2022/06/17 02:29:47;;;;;;;7.50;3.72;;;;;;;;;;5014472;28;20037;-74
2022/06/17 02:32:13;;;;;;;11.48;4.18;;;;;;;;;;5011809;28;20387;-73
2022/06/17 02:34:58;;;;;;;12.85;4.20;;;;;;;;;;5014477;28;20030;-75
2022/06/17 02:37:25;;;;;;;7.90;3.58;;;;;;;;;;5005576;28;20026;-76
2022/06/17 02:39:52;;;;;;;13.88;4.07;;;;;;;;;;5013958;28;20029;-74
2022/06/17 02:42:25;;;;;;;6.18;3.67;;;;;;;;;;5013030;28;20022;-73
2022/06/17 02:45:17;;;;;;;9.95;3.83;;;;;;;;;;5011926;28;20077;-74
2022/06/17 02:47:44;;;;;;;8.75;4.60;;;;;;;;;;5011116;28;20095;-74
2022/06/17 02:50:21;;;;;;;7.90;4.05;;;;;;;;;;5013935;28;20033;-74
2022/06/17 02:52:48;;;;;;;11.90;3.90;;;;;;;;;;5012497;28;20101;-75
2022/06/17 02:55:20;;;;;;;8.38;4.18;;;;;;;;;;5012431;28;20050;-73
2022/06/17 02:57:47;;;;;;;13.38;4.15;;;;;;;;;;5014190;28;20029;-74
2022/06/17 03:00:13;;;;;;;24.92;4.93;;;;;;;;;;5014270;28;20030;-73
2022/06/17 03:02:44;;;;;;;13.05;4.10;;;;;;;;;;5011370;28;20026;-74
2022/06/17 03:05:22;;;;;;;15.65;4.32;;;;;;;;;;5013099;28;20026;-75
2022/06/17 03:07:49;;;;;;;9.63;3.90;;;;;;;;;;5012563;28;20427;-75
2022/06/17 03:10:17;;;;;;;10.05;3.67;;;;;;;;;;5013555;28;20024;-75
2022/06/17 03:12:44;;;;;;;9.88;3.90;;;;;;;;;;5010186;28;20026;-75
2022/06/17 03:15:12;;;;;;;14.55;3.60;;;;;;;;;;5012656;28;20167;-74
2022/06/17 03:17:40;;;;;;;8.68;3.70;;;;;;;;;;5013192;28;20476;-73
2022/06/17 03:20:08;;;;;;;7.25;3.83;;;;;;;;;;5014470;28;20032;-76
2022/06/17 03:22:35;;;;;;;7.35;3.70;;;;;;;;;;5004555;28;20023;-74
2022/06/17 03:25:01;;;;;;;10.02;4.18;;;;;;;;;;5009138;28;20037;-74
2022/06/17 03:27:35;;;;;;;9.70;3.72;;;;;;;;;;5009365;28;20080;-76
2022/06/17 03:30:02;;;;;;;8.18;3.55;;;;;;;;;;5014359;28;20022;-76
2022/06/17 03:32:34;;;;;;;10.63;3.45;;;;;;;;;;5012063;28;20037;-74
2022/06/17 03:35:00;;;;;;;8.88;3.67;;;;;;;;;;5002884;28;20527;-75
2022/06/17 03:37:40;;;;;;;10.43;3.47;;;;;;;;;;5010376;28;20503;-74
2022/06/17 03:40:18;;;;;;;6.38;3.17;;;;;;;;;;5008037;28;20057;-73
2022/06/17 03:43:05;;;;;;;7.18;3.22;;;;;;;;;;5009279;28;20018;-74
2022/06/17 03:45:43;;;;;;;9.50;3.28;;;;;;;;;;5008221;28;20076;-74
2022/06/17 03:48:15;;;;;;;11.23;3.70;;;;;;;;;;5007903;28;20388;-75
2022/06/17 03:50:43;;;;;;;8.68;3.72;;;;;;;;;;5012452;28;20029;-73
2022/06/17 03:53:18;;;;;;;14.52;3.53;;;;;;;;;;5013253;28;20080;-74
2022/06/17 03:55:44;;;;;;;16.00;3.78;;;;;;;;;;5013412;28;20061;-74
2022/06/17 03:58:12;;;;;;;10.85;3.38;;;;;;;;;;5008810;28;20472;-74
2022/06/17 04:00:41;;;;;;;8.57;3.83;;;;;;;;;;5011910;28;20029;-75
2022/06/17 04:03:12;;;;;;;14.80;4.07;;;;;;;;;;5007575;28;20025;-75
2022/06/17 04:05:39;;;;;;;17.90;3.75;;;;;;;;;;5013417;28;20452;-77
2022/06/17 04:08:12;;;;;;;8.55;4.00;;;;;;;;;;5012925;28;20068;-75
2022/06/17 04:10:38;;;;;;;9.18;3.95;;;;;;;;;;5006457;28;20033;-75
2022/06/17 04:13:04;;;;;;;11.23;3.75;;;;;;;;;;5013656;28;20068;-75
2022/06/17 04:15:45;;;;;;;15.70;5.20;;;;;;;;;;5013083;28;20045;-75
2022/06/17 04:18:11;;;;;;;10.07;4.70;;;;;;;;;;5012482;28;20041;-75
2022/06/17 04:20:40;;;;;;;14.90;4.78;;;;;;;;;;5008805;28;20391;-75
2022/06/17 04:23:08;;;;;;;10.25;4.05;;;;;;;;;;5012992;28;20483;-75
2022/06/17 04:25:38;;;;;;;8.20;4.30;;;;;;;;;;5006906;28;20125;-75
2022/06/17 04:28:06;;;;;;;14.57;4.50;;;;;;;;;;5007895;28;20098;-76
2022/06/17 04:30:43;;;;;;;9.50;3.38;;;;;;;;;;5009475;28;20040;-75
2022/06/17 04:33:28;;;;;;;10.93;3.90;;;;;;;;;;5009221;28;20145;-74
2022/06/17 04:36:07;;;;;;;11.88;4.03;;;;;;;;;;5009895;28;20160;-76
2022/06/17 04:38:45;;;;;;;12.52;3.80;;;;;;;;;;5012494;28;20084;-74
2022/06/17 04:41:13;;;;;;;10.98;4.07;;;;;;;;;;5007697;28;20475;-74
2022/06/17 04:43:40;;;;;;;12.45;3.92;;;;;;;;;;5012510;28;20472;-74
2022/06/17 04:46:13;;;;;;;14.52;4.32;;;;;;;;;;5017913;28;20096;-75
2022/06/17 04:48:39;;;;;;;11.27;3.90;;;;;;;;;;5016305;28;20411;-75
2022/06/17 04:51:05;;;;;;;10.98;3.78;;;;;;;;;;5008613;28;20163;-75
2022/06/17 04:53:32;;;;;;;16.65;3.75;;;;;;;;;;5012395;28;20434;-75
2022/06/17 04:55:59;;;;;;;11.20;4.10;;;;;;;;;;5012586;28;20053;-78
2022/06/17 04:58:27;;;;;;;11.13;4.00;;;;;;;;;;5012952;28;20107;-75
2022/06/17 05:00:54;;;;;;;15.82;4.28;;;;;;;;;;5005905;28;20040;-77
2022/06/17 05:03:26;;;;;;;12.90;3.90;;;;;;;;;;5011748;28;20030;-77
2022/06/17 05:05:52;;;;;;;10.43;3.47;;;;;;;;;;5012872;28;20384;-76
2022/06/17 05:08:25;;;;;;;14.13;4.22;;;;;;;;;;5012504;28;20045;-74
2022/06/17 05:11:03;;;;;;;17.35;5.03;;;;;;;;;;5009519;28;20109;-80
2022/06/17 05:13:35;;;;;;;10.15;3.65;;;;;;;;;;5011724;28;20100;-77
2022/06/17 05:16:01;;;;;;;7.80;3.78;;;;;;;;;;5012564;28;20067;-75
2022/06/17 05:18:27;;;;;;;10.18;3.80;;;;;;;;;;5012332;28;20064;-74
2022/06/17 05:20:53;;;;;;;13.38;4.85;;;;;;;;;;5012041;28;20543;-76
2022/06/17 05:23:20;;;;;;;11.73;4.38;;;;;;;;;;5004795;28;20172;-80
2022/06/17 05:25:51;;;;;;;15.77;4.90;;;;;;;;;;5004547;28;20400;-72
2022/06/17 05:31:19;;;;;;;17.80;4.13;;;;;;;;;;5009167;28;20129;-81
2022/06/17 05:33:49;;;;;;;12.35;4.05;;;;;;;;;;5004407;28;20049;-80
2022/06/17 05:36:15;;;;;;;14.57;4.20;;;;;;;;;;5010563;28;20424;-86
2022/06/17 05:38:42;;;;;;;15.27;4.68;;;;;;;;;;5010756;28;20034;-75
2022/06/17 05:41:36;;;;;;;14.38;4.35;;;;;;;;;;5009513;28;20041;-70
2022/06/17 05:44:02;;;;;;;;;;;;;;;;;;5009967;28;20484;-82
2022/06/17 05:46:29;;;;;;;10.95;4.25;;;;;;;;;;5010809;28;19917;-76
2022/06/17 05:48:55;;;;;;;16.00;4.38;;;;;;;;;;5007364;28;20026;-76
2022/06/17 05:51:21;;;;;;;14.85;4.10;;;;;;;;;;5007671;28;20476;-71
2022/06/17 05:53:47;;;;;;;12.68;4.28;;;;;;;;;;5006872;28;20030;-71
2022/06/17 05:56:13;;;;;;;12.43;4.55;;;;;;;;;;5006572;28;20474;-72
2022/06/17 05:58:39;;;;;;;15.68;4.63;;;;;;;;;;5007652;28;20022;-71
2022/06/17 06:01:05;;;;;;;10.48;4.47;;;;;;;;;;5009309;28;20064;-72
2022/06/17 06:03:31;;;;;;;9.68;4.03;;;;;;;;;;5007396;28;20407;-84
2022/06/17 06:05:57;;;;;;;8.43;3.90;;;;;;;;;;5007917;28;20026;-74
2022/06/17 06:08:23;;;;;;;8.35;4.35;;;;;;;;;;5002240;28;20391;-71
2022/06/17 06:10:50;;;;;;;14.05;4.32;;;;;;;;;;5006989;28;20120;-83
2022/06/17 06:13:17;;;;;;;14.77;4.55;;;;;;;;;;5005778;28;20022;-79
2022/06/17 06:15:44;;;;;;;11.98;4.00;;;;;;;;;;5002952;28;20076;-82
2022/06/17 06:18:21;;;;;;;13.88;5.25;;;;;;;;;;5005214;28;20038;-78
2022/06/17 06:20:48;;;;;;;12.20;4.07;;;;;;;;;;5006132;28;20037;-84
2022/06/17 06:23:14;;;;;;;17.88;4.28;;;;;;;;;;5008977;28;20463;-85
2022/06/17 06:25:40;;;;;;;17.10;4.32;;;;;;;;;;5011622;28;20431;-83
2022/06/17 06:28:11;;;;;;;11.40;4.22;;;;;;;;;;5014700;28;20025;-83
2022/06/17 06:30:37;;;;;;;12.18;4.07;;;;;;;;;;5012567;28;20369;-79
2022/06/17 06:33:03;;;;;;;12.05;4.10;;;;;;;;;;5014279;28;20029;-87
2022/06/17 06:35:32;;;;;;;10.88;3.90;;;;;;;;;;5009094;28;20038;-81
2022/06/17 06:37:58;;;;;;;11.00;3.40;;;;;;;;;;5009926;28;20033;-88
2022/06/17 06:40:25;;;;;;;8.77;3.53;;;;;;;;;;5009617;28;20030;-81
2022/06/17 06:42:52;;;;;;;9.90;3.25;;;;;;;;;;5008952;28;20037;-81
2022/06/17 06:45:21;;;;;;;8.15;3.30;;;;;;;;;;5002007;28;20026;-81
2022/06/17 06:47:47;;;;;;;8.98;3.72;;;;;;;;;;5009298;28;20025;-81
2022/06/17 06:50:15;;;;;;;10.52;3.78;;;;;;;;;;5007757;28;20036;-70
2022/06/17 06:52:42;;;;;;;23.08;3.90;;;;;;;;;;5009731;28;20101;-77
2022/06/17 06:55:08;;;;;;;8.40;3.42;;;;;;;;;;5007877;28;20431;-81
2022/06/17 06:57:34;;;;;;;12.93;3.47;;;;;;;;;;5008741;28;20030;-75
2022/06/17 07:00:09;;;;;;;9.63;3.53;;;;;;;;;;5009769;28;20172;-73
2022/06/17 07:02:35;;;;;;;6.75;3.70;;;;;;;;;;5004667;28;20095;-75
2022/06/17 07:05:03;;;;;;;10.13;3.28;;;;;;;;;;5002800;28;20029;-72
2022/06/17 07:07:30;;;;;;;11.27;3.75;;;;;;;;;;5005549;28;20030;-74
2022/06/17 07:09:56;;;;;;;6.97;3.17;;;;;;;;;;5008101;28;20376;-70
2022/06/17 07:12:22;;;;;;;6.03;3.20;;;;;;;;;;5003519;28;20117;-76
2022/06/17 07:14:48;;;;;;;5.57;2.97;;;;;;;;;;5006129;28;20029;-75
2022/06/17 07:17:15;;;;;;;10.32;3.67;;;;;;;;;;5007210;28;20034;-77
2022/06/17 07:19:41;;;;;;;7.53;3.20;;;;;;;;;;5002785;28;20025;-75
2022/06/17 07:22:07;;;;;;;8.60;3.20;;;;;;;;;;5007487;28;20025;-77
2022/06/17 07:24:33;;;;;;;8.52;3.38;;;;;;;;;;5008189;28;20492;-80
2022/06/17 07:26:59;;;;;;;4.97;3.10;;;;;;;;;;5009955;28;20034;-77
2022/06/17 07:29:25;;;;;;;7.35;3.28;;;;;;;;;;5009322;28;20022;-78
2022/06/17 07:31:51;;;;;;;5.22;3.30;;;;;;;;;;5008573;28;20038;-83
2022/06/17 07:34:17;;;;;;;5.38;3.10;;;;;;;;;;5009836;28;20124;-80
2022/06/17 07:42:12;;;;;;;15.15;3.90;;;;;;;;;;5004915;28;20041;-80
2022/06/17 07:44:38;;;;;;;6.65;2.97;;;;;;;;;;5010532;28;20534;-78
2022/06/17 07:47:05;;;;;;;8.18;3.65;;;;;;;;;;5005919;28;20030;-79
2022/06/17 07:49:31;;;;;;;10.20;3.33;;;;;;;;;;5006407;28;20450;-79
2022/06/17 07:51:57;;;;;;;6.18;3.00;;;;;;;;;;5009779;28;20068;-72
2022/06/17 07:54:23;;;;;;;11.48;3.22;;;;;;;;;;5014414;28;20053;-71
2022/06/17 07:56:50;;;;;;;8.00;3.10;;;;;;;;;;5009504;28;20113;-70
2022/06/17 07:59:16;;;;;;;7.25;3.10;;;;;;;;;;5009555;28;20033;-77
2022/06/17 08:01:42;;;;;;;5.20;3.05;;;;;;;;;;5008606;28;20502;-74
2022/06/17 08:04:08;;;;;;;10.40;3.30;;;;;;;;;;5012473;28;20026;-76
2022/06/17 08:06:34;;;;;;;9.88;3.05;;;;;;;;;;5007940;28;20030;-84
2022/06/17 08:09:00;;;;;;;7.47;3.28;;;;;;;;;;5009253;28;20029;-77
2022/06/17 08:11:26;;;;;;;5.90;2.92;;;;;;;;;;5008953;28;20041;-70
2022/06/17 08:13:52;;;;;;;17.45;3.40;;;;;;;;;;5007848;28;20029;-75
2022/06/17 08:16:18;;;;;;;92.13;7.47;;;;;;;;;;5003661;28;20919;-80
2022/06/17 08:18:44;;;;;;;288.92;20.08;;;;;;;;;;5005632;28;20091;-81
2022/06/17 08:21:11;;;;;;;46.17;4.40;;;;;;;;;;5009085;28;20062;-76
2022/06/17 08:23:37;;;;;;;13.90;3.35;;;;;;;;;;5011137;28;20034;-79
2022/06/17 08:26:04;;;;;;;23.30;3.50;;;;;;;;;;5005151;28;20085;-81
2022/06/17 08:28:30;;;;;;;60.95;5.50;;;;;;;;;;5009796;28;20037;-71
2022/06/17 08:30:56;;;;;;;131.43;12.50;;;;;;;;;;5010216;28;20128;-70
2022/06/17 08:33:29;;;;;;;11.88;3.25;;;;;;;;;;5006603;28;20118;-72
2022/06/17 08:35:55;;;;;;;;;;;;;;;;;;5010011;28;20034;-73
2022/06/17 08:38:24;;;;;;;7.90;2.85;;;;;;;;;;4999084;28;20390;-79
2022/06/17 08:40:53;;;;;;;10.00;4.60;;;;;;;;;;5010489;28;20037;-72
2022/06/17 08:43:34;;;;;;;69.35;6.35;;;;;;;;;;5010944;28;20041;-75
2022/06/17 08:46:15;;;;;;;9.20;3.25;;;;;;;;;;5009806;28;20040;-74
2022/06/17 08:48:59;;;;;;;27.23;4.03;;;;;;;;;;5004466;28;20050;-81
2022/06/17 08:51:40;;;;;;;1335.55;106.00;;;;;;;;;;5006302;28;20026;-75
2022/06/17 08:54:21;;;;;;;5.47;2.83;;;;;;;;;;5006874;28;20125;-76
2022/06/17 08:56:47;;;;;;;10.18;3.10;;;;;;;;;;5006678;28;20089;-73
2022/06/17 08:59:24;;;;;;;15.63;3.67;;;;;;;;;;5010597;28;20080;-72
2022/06/17 09:01:57;;;;;;;10.25;3.30;;;;;;;;;;5009584;28;20068;-72
2022/06/17 09:04:26;;;;;;;;;;;;;;;;;;5012002;28;20395;-73
2022/06/17 09:06:52;;;;;;;6.40;3.00;;;;;;;;;;5007610;28;20058;-71
2022/06/17 09:09:21;;;;;;;18.38;4.63;;;;;;;;;;5008304;28;20027;-72
2022/06/17 09:11:59;;;;;;;12.82;3.92;;;;;;;;;;5008157;28;20030;-77
2022/06/17 09:14:27;;;;;;;10.52;3.78;;;;;;;;;;5008518;28;20388;-78
2022/06/17 09:16:56;;;;;;;14.35;3.92;;;;;;;;;;5006171;28;20480;-81
2022/06/17 09:19:26;;;;;;;10.63;3.55;;;;;;;;;;5009503;28;20053;-79
2022/06/17 09:21:58;;;;;;;12.27;3.20;;;;;;;;;;5009007;28;20537;-75
2022/06/17 09:24:29;;;;;;;6.30;3.40;;;;;;;;;;5005092;28;20038;-76
2022/06/17 09:26:58;;;;;;;31.48;5.00;;;;;;;;;;5005240;28;20019;-74
2022/06/17 09:29:33;;;;;;;4.55;3.05;;;;;;;;;;5004223;28;20034;-83
2022/06/17 09:32:08;;;;;;;7.75;3.63;;;;;;;;;;4997586;28;20112;-82
2022/06/17 09:34:47;;;;;;;18.20;3.50;;;;;;;;;;4999820;28;20045;-77
2022/06/17 09:37:17;;;;;;;14.32;4.28;;;;;;;;;;5005563;28;20045;-79
2022/06/17 09:39:55;;;;;;;8.38;4.10;;;;;;;;;;5006361;28;20434;-78
2022/06/17 09:42:24;;;;;;;8.35;4.63;;;;;;;;;;5002173;28;20030;-74
2022/06/17 09:44:54;;;;;;;9.50;3.58;;;;;;;;;;5005418;28;20026;-74
2022/06/17 09:47:26;;;;;;;18.33;6.03;;;;;;;;;;5002780;28;20117;-78
2022/06/17 09:49:54;;;;;;;14.27;3.92;;;;;;;;;;5010197;28;20034;-79
2022/06/17 09:52:28;;;;;;;18.30;3.92;;;;;;;;;;5004978;28;20385;-73
2022/06/17 09:55:16;;;;;;;11.63;2.97;;;;;;;;;;5004175;28;20058;-73
2022/06/17 09:58:06;;;;;;;7.68;3.10;;;;;;;;;;5004471;28;20464;-72
2022/06/17 10:00:47;;;;;;;8.52;3.03;;;;;;;;;;4915590;29;20398;-70
2022/06/17 10:03:33;;;;;;;12.25;3.45;;;;;;;;;;4930803;29;20489;-71
2022/06/17 10:06:01;;;;;;;6.63;3.03;;;;;;;;;;4930633;29;20425;-73
2022/06/17 10:08:32;;;;;;;9.60;3.30;;;;;;;;;;4912222;29;20087;-71
2022/06/17 10:11:16;;;;;;;8.32;3.33;;;;;;;;;;4929032;29;20041;-74
2022/06/17 10:13:48;;;;;;;22.50;3.88;;;;;;;;;;4929153;29;20028;-74
2022/06/17 10:19:17;;;;;;;5.33;2.73;;;;;;;;;;4923501;29;20071;-72
2022/06/17 10:21:53;;;;;;;6.13;2.90;;;;;;;;;;4929889;29;20040;-70
2022/06/17 10:24:31;;;;;;;8.27;2.50;;;;;;;;;;4929837;29;20040;-72
2022/06/17 10:27:12;;;;;;;8.60;2.97;;;;;;;;;;4935058;29;20509;-73
2022/06/17 10:29:47;;;;;;;5.03;2.70;;;;;;;;;;4934216;29;20747;-73
2022/06/17 10:32:14;;;;;;;16.90;3.17;;;;;;;;;;4932864;29;20119;-82
2022/06/17 10:34:45;;;;;;;10.35;3.10;;;;;;;;;;4933919;29;20055;-77
2022/06/17 10:37:12;;;;;;;5.15;2.70;;;;;;;;;;4956595;28;20065;-81
2022/06/17 10:39:39;;;;;;;9.02;2.70;;;;;;;;;;5012102;28;20044;-80
2022/06/17 10:42:08;;;;;;;6.38;2.72;;;;;;;;;;5012697;28;20032;-77
2022/06/17 10:44:34;;;;;;;5.18;2.65;;;;;;;;;;5008527;28;20072;-78
2022/06/17 10:47:19;;;;;;;3.47;2.60;;;;;;;;;;5006531;28;20030;-77
2022/06/17 10:49:57;;;;;;;8.95;2.58;;;;;;;;;;5011847;28;20535;-79
2022/06/17 10:52:27;;;;;;;6.20;2.83;;;;;;;;;;5012977;28;20042;-73
2022/06/17 10:54:54;;;;;;;7.35;2.60;;;;;;;;;;5013166;28;20061;-77
2022/06/17 10:57:28;;;;;;;9.32;2.72;;;;;;;;;;5008392;28;20384;-76
2022/06/17 10:59:54;;;;;;;6.30;2.53;;;;;;;;;;5012182;28;20026;-78
2022/06/17 11:02:24;;;;;;;13.07;3.05;;;;;;;;;;5009987;28;20125;-80
2022/06/17 11:04:54;;;;;;;9.10;2.60;;;;;;;;;;5000051;28;20030;-80
2022/06/17 11:07:27;;;;;;;8.20;3.17;;;;;;;;;;5011246;28;20022;-78
2022/06/17 11:09:58;;;;;;;7.25;2.50;;;;;;;;;;5013482;28;20036;-86
2022/06/17 11:12:37;;;;;;;5.95;2.50;;;;;;;;;;5008113;28;20025;-87
2022/06/17 11:15:17;;;;;;;7.47;2.45;;;;;;;;;;5009991;28;20034;-80
2022/06/17 11:17:45;;;;;;;4.18;2.47;;;;;;;;;;5013111;28;20034;-86
2022/06/17 11:20:21;;;;;;;9.50;2.60;;;;;;;;;;5010554;28;20503;-79
2022/06/17 11:22:57;;;;;;;5.70;2.80;;;;;;;;;;5007687;28;20033;-76
2022/06/17 11:25:28;;;;;;;6.07;2.40;;;;;;;;;;5007908;28;20038;-72
2022/06/17 11:28:12;;;;;;;10.15;2.60;;;;;;;;;;5010160;28;20507;-82
2022/06/17 11:31:05;;;;;;;3.50;2.35;;;;;;;;;;5004152;28;20080;-75
2022/06/17 11:33:40;;;;;;;7.80;2.40;;;;;;;;;;5004779;28;20492;-75
2022/06/17 11:36:20;;;;;;;13.23;2.83;;;;;;;;;;5005698;28;20088;-73
2022/06/17 11:38:47;;;;;;;5.22;2.20;;;;;;;;;;5008869;28;20563;-70
2022/06/17 11:41:34;;;;;;;3.83;2.60;;;;;;;;;;5013291;28;20145;-71
2022/06/17 11:44:26;;;;;;;5.65;2.72;;;;;;;;;;5008691;28;20123;-72
2022/06/17 11:46:54;;;;;;;7.25;2.75;;;;;;;;;;5003235;28;20038;-78
2022/06/17 11:49:24;;;;;;;8.20;2.92;;;;;;;;;;5005330;28;20048;-78
2022/06/17 11:52:00;;;;;;;8.90;2.75;;;;;;;;;;5010446;28;20030;-75
2022/06/17 11:54:37;;;;;;;6.07;2.47;;;;;;;;;;5008825;28;20053;-71
2022/06/17 11:57:21;;;;;;;6.07;2.60;;;;;;;;;;4997810;28;20057;-72
2022/06/17 12:00:06;;;;;;;24.98;3.97;;;;;;;;;;5011372;28;20038;-70
2022/06/17 12:02:52;;;;;;;9.15;2.47;;;;;;;;;;5011048;28;20164;-70
2022/06/17 12:05:23;;;;;;;4.63;2.60;;;;;;;;;;5003544;28;20029;-70
2022/06/17 12:08:06;;;;;;;15.73;2.95;;;;;;;;;;5012549;28;20085;-72
2022/06/17 12:10:46;;;;;;;8.57;2.83;;;;;;;;;;5011224;28;20030;-70
2022/06/17 12:13:23;;;;;;;6.25;2.35;;;;;;;;;;4996769;28;20100;-72
2022/06/17 12:16:09;;;;;;;16.10;2.80;;;;;;;;;;5007008;28;20030;-71
2022/06/17 12:18:39;;;;;;;7.88;2.40;;;;;;;;;;4998396;28;20443;-72
2022/06/17 12:34:02;;;;;;;5.90;2.72;;;;;;;;;;5112316;27;20428;-70
2022/06/17 12:36:35;;;;;;;7.47;2.97;;;;;;;;;;5113149;28;20028;-70
2022/06/17 12:39:05;;;;;;;4.70;2.55;;;;;;;;;;5108050;27;20620;-71
2022/06/17 12:41:38;;;;;;;11.40;2.80;;;;;;;;;;5106203;28;20038;-70
2022/06/17 12:44:07;;;;;;;8.57;3.00;;;;;;;;;;5111207;28;20055;-69
2022/06/17 12:46:33;;;;;;;9.85;5.75;;;;;;;;;;5116951;28;20039;-72
2022/06/17 12:53:14;;;;;;;10.48;2.92;;;;;;;;;;5122426;27;20401;-68
2022/06/17 12:54:51;;;;;;;8.75;3.08;;;;;;;;;;5103460;28;20057;-69
2022/06/17 12:57:39;;;;;;;17.52;3.58;;;;;;;;;;5108430;28;20118;-69
2022/06/17 13:00:10;;;;;;;15.80;2.88;;;;;;;;;;5114838;28;20439;-69
2022/06/17 13:03:06;;;;;;;10.02;2.95;;;;;;;;;;5112213;28;20035;-70
2022/06/17 13:09:01;;;;;;;12.20;2.80;;;;;;;;;;5062632;28;20608;-71
2022/06/17 13:11:40;;;;;;;16.67;3.47;;;;;;;;;;5070520;28;20295;-71
2022/06/17 13:14:18;;;;;;;71.45;7.30;;;;;;;;;;5064609;28;20165;-71
2022/06/17 13:16:50;;;;;;;10.27;3.35;;;;;;;;;;5069072;28;20036;-76
2022/06/17 13:19:21;;;;;;;5.75;2.88;;;;;;;;;;5068568;28;20021;-72
2022/06/17 13:22:07;;;;;;;11.38;2.90;;;;;;;;;;5071392;28;20041;-70
2022/06/17 13:24:39;;;;;;;11.32;2.67;;;;;;;;;;5079838;28;20120;-75
2022/06/17 13:27:11;;;;;;;10.43;2.90;;;;;;;;;;5047415;28;20025;-73
2022/06/17 13:29:55;;;;;;;15.77;3.33;;;;;;;;;;5042546;28;20037;-71
2022/06/17 13:32:29;;;;;;;19.13;3.33;;;;;;;;;;5049608;28;20053;-74
2022/06/17 13:34:58;;;;;;;12.20;2.85;;;;;;;;;;5036421;28;20124;-70
2022/06/17 13:37:33;;;;;;;9.07;2.85;;;;;;;;;;5048696;28;20385;-72
2022/06/17 13:40:04;;;;;;;11.25;3.13;;;;;;;;;;5054308;28;20040;-74
2022/06/17 13:42:31;;;;;;;13.27;3.08;;;;;;;;;;5060041;28;20044;-74
2022/06/17 13:45:02;;;;;;;10.20;2.95;;;;;;;;;;5074037;28;20634;-71
2022/06/17 13:47:48;;;;;;;39.03;5.20;;;;;;;;;;5073718;28;20050;-72
2022/06/17 13:50:37;;;;;;;11.48;3.38;;;;;;;;;;5077590;28;20470;-72
2022/06/17 13:53:14;;;;;;;11.88;3.65;;;;;;;;;;5076531;28;20043;-75
2022/06/17 13:55:58;;;;;;;12.52;3.85;;;;;;;;;;5076692;28;20086;-77
2022/06/17 13:58:27;;;;;;;18.33;4.20;;;;;;;;;;5075701;28;20028;-74
2022/06/17 14:00:55;;;;;;;10.13;3.63;;;;;;;;;;5082734;28;20036;-73
2022/06/17 14:03:23;;;;;;;13.85;3.65;;;;;;;;;;5084943;28;20043;-71
2022/06/17 14:05:55;;;;;;;9.68;3.17;;;;;;;;;;5078848;28;20486;-72
2022/06/17 14:08:21;;;;;;;8.90;3.03;;;;;;;;;;5089886;28;20474;-73
2022/06/17 14:10:47;;;;;;;5.65;2.80;;;;;;;;;;5085123;28;20020;-72
2022/06/17 14:13:24;;;;;;;6.57;2.95;;;;;;;;;;5083087;28;20028;-72
2022/06/17 14:16:02;;;;;;;11.35;3.28;;;;;;;;;;5087008;28;20477;-74
2022/06/17 14:18:34;;;;;;;8.02;3.30;;;;;;;;;;5075815;28;20497;-74
2022/06/17 14:21:19;;;;;;;10.20;3.40;;;;;;;;;;5094072;28;20023;-74
2022/06/17 14:23:47;;;;;;;12.38;3.85;;;;;;;;;;5074815;28;20410;-72
2022/06/17 14:26:33;;;;;;;23.05;5.45;;;;;;;;;;5083438;28;20073;-74
2022/06/17 14:29:00;;;;;;;27.85;12.52;;;;;;;;;;5075739;28;20469;-73
2022/06/17 14:31:26;;;;;;;38.15;6.30;;;;;;;;;;5077736;28;20036;-78
2022/06/17 14:33:52;;;;;;;15.95;3.70;;;;;;;;;;5079547;28;20051;-79
2022/06/17 14:36:38;;;;;;;57.88;7.60;;;;;;;;;;5083914;28;20452;-78
2022/06/17 14:39:04;;;;;;;24.13;5.30;;;;;;;;;;5069797;28;20028;-79
2022/06/17 14:42:02;;;;;;;26.65;4.63;;;;;;;;;;5082856;28;20037;-78
2022/06/17 14:44:34;;;;;;;15.10;6.05;;;;;;;;;;5075858;28;20043;-78
2022/06/17 14:47:19;;;;;;;12.43;9.25;;;;;;;;;;5078423;28;20109;-78
2022/06/17 14:49:47;;;;;;;22.10;9.43;;;;;;;;;;5085103;28;20070;-77
2022/06/17 14:52:34;;;;;;;10.32;4.50;;;;;;;;;;5071133;28;20029;-77
2022/06/17 14:55:18;;;;;;;17.35;4.57;;;;;;;;;;5067281;28;20028;-77
2022/06/17 14:58:06;;;;;;;6.25;3.50;;;;;;;;;;5072233;28;20466;-77
2022/06/17 15:00:41;;;;;;;8.50;3.70;;;;;;;;;;5058602;28;20032;-79
2022/06/17 15:03:25;;;;;;;10.52;3.80;;;;;;;;;;5070074;28;20067;-78
2022/06/17 15:05:54;;;;;;;10.70;3.72;;;;;;;;;;5069973;28;20516;-78
2022/06/17 15:08:24;;;;;;;8.27;3.50;;;;;;;;;;5074429;28;20025;-79
2022/06/17 15:11:07;;;;;;;4.80;3.20;;;;;;;;;;5071203;28;20028;-78
2022/06/17 15:16:23;;;;;;;5.85;3.30;;;;;;;;;;5071421;28;20044;-78
2022/06/17 15:18:49;;;;;;;6.13;3.10;;;;;;;;;;5070139;28;20162;-79
2022/06/17 15:21:20;;;;;;;12.60;4.00;;;;;;;;;;5073151;28;20024;-78
2022/06/17 15:24:07;;;;;;;22.15;4.25;;;;;;;;;;5069189;28;20063;-79
2022/06/17 15:26:33;;;;;;;17.33;3.30;;;;;;;;;;5067835;28;20474;-80
2022/06/17 15:29:00;;;;;;;6.28;3.03;;;;;;;;;;5073917;28;20020;-78
2022/06/17 15:31:34;;;;;;;28.20;4.78;;;;;;;;;;5071980;28;20143;-78
2022/06/17 15:34:01;;;;;;;14.07;3.38;;;;;;;;;;5074030;28;20405;-76